x

South Brooks (46132) Wave Buoy

11:00pm - Tue 16th Sep 2014 All times are PDT. -7 hours from GMT.

  • Sig Wave height 6.6ft
  • Peak Period 14s
  • Wind
    11mph, 13mph gusts
  • Sea Temp 58°f
  • Air Temp 58°f
  • Sea Pressure 1010.2mb
  • South Brooks
  • South Brooks

More Historic Weather Station data

Upgrade to MSW Pro to gain access to the past 30 days of data for over 8000 Wavebouys and Weather Stations around the globe.

Join Pro

Comparision Forecast

View Surf forecast
   
Tue 09/16 11:00pm 6.5ft 14s 11 13 mph 1010.2mb 58f 58f
10:00pm 6.5ft 13s 9 13 mph 1010.5mb 58f 59f
9:00pm 7ft 14s 11 13 mph 1010.7mb 58f 59f
8:00pm 6ft 13s 13 18 mph 1010.4mb 57f 58f
7:00pm 6.5ft 14s 13 16 mph 1010.5mb 57f 58f
6:00pm 6ft 14s 13 18 mph 1010.3mb 56f 58f
5:00pm 6ft 13s 13 16 mph 1010.7mb 56f 58f
4:00pm 7ft 14s 13 18 mph 1010.9mb 58f 58f
3:00pm 6ft 14s 13 18 mph 1011.3mb 58f 58f
2:00pm 5.5ft 14s 13 16 mph 1011.8mb 59f 58f
1:00pm 5ft 14s 11 16 mph 1011.8mb 59f 58f
12:00pm 6.5ft 13s 11 13 mph 1011.8mb 59f 56f
11:00am 6ft 12s 11 13 mph 1011.6mb 59f 55f
10:00am 5.5ft 14s 9 13 mph 1011.6mb 59f 55f
9:00am 5.5ft 14s 9 13 mph 1011.1mb 59f 53f
8:00am 5ft 14s 7 11 mph 1011.1mb 58f 51f
7:00am 4.5ft 14s 4 7 mph 1010.7mb 59f 51f
6:00am 4.5ft 15s 4 7 mph 1010.4mb 59f 51f
5:00am 4.5ft 14s 7 11 mph 1010.4mb 59f 52f
4:00am 4.5ft 15s 9 11 mph 1010.4mb 59f 52f
3:00am 4ft 14s 9 11 mph 1010.3mb 59f 52f
2:00am 3.5ft 15s 9 11 mph 1010.4mb 59f 53f
1:00am 3.5ft 15s 11 13 mph 1010.6mb 59f 52f
12:00am 3.5ft 15s 11 13 mph 1010.3mb 59f 52f
Mon 09/15 11:00pm 3.5ft 15s 11 13 mph 1010.1mb 59f 53f
10:00pm 3ft 10s 11 13 mph 1009.8mb 59f 53f
9:00pm 3.5ft 15s 11 13 mph 1009.9mb 59f 53f
8:00pm 3ft 16s 11 13 mph 1010mb 59f 52f
7:00pm 3ft 16s 11 13 mph 1010mb 59f 53f
6:00pm 3ft 16s 11 13 mph 1010.1mb 59f 53f
5:00pm 3.5ft 16s 11 13 mph 1010.3mb 59f 53f
4:00pm 2.5ft 16s 9 13 mph 1010.6mb 59f 56f
3:00pm 3ft 16s 9
mph
1011.1mb 59f 57f
2:00pm 3ft 16s 9 11 mph 1011.4mb 59f 56f
1:00pm 3ft 16s 9
mph
1011.5mb 59f 55f
12:00pm 3ft 16s 4 7 mph 1011.6mb 59f 55f
11:00am 3.5ft 14s 4 7 mph 1011.4mb 59f 53f
10:00am 3.5ft 16s 7 9 mph 1011.5mb 59f 53f
9:00am 3.5ft 16s 9 11 mph 1011.4mb 59f 52f
8:00am 3.5ft 17s 13 16 mph 1011.4mb 58f 52f
7:00am 3.5ft 17s 13 16 mph 1011.4mb 58f 52f
6:00am 3.5ft 17s 11 16 mph 1011.2mb 59f 53f
5:00am 3.5ft 17s 13 16 mph 1011.1mb 59f 53f
4:00am 3.5ft 17s 13 16 mph 1011.1mb 59f 53f
3:00am 3.5ft 10s 13 16 mph 1011.2mb 59f 55f
2:00am 3.5ft 18s 11 13 mph 1011.4mb 59f 55f
1:00am 3.5ft 18s 13 16 mph 1011.5mb 59f 54f
12:00am 3.5ft 18s 13 18 mph 1011.6mb 59f 56f
Sun 09/14 11:00pm 3ft 14s 11 13 mph 1011.6mb 59f 55f
10:00pm 2.5ft 18s 13 16 mph 1011.7mb 59f 56f
9:00pm 2.5ft 20s 7 9 mph 1011.8mb 59f 58f
8:00pm 2.5ft 20s 11 13 mph 1011.6mb 59f 57f
7:00pm 2.5ft 14s 13 16 mph 1011.9mb 59f 57f
6:00pm 2.5ft 14s 11 13 mph 1012mb 60f 58f
5:00pm 3ft 14s 9 11 mph 1012.4mb 60f 58f
4:00pm 2.5ft 14s 7
mph
1012.8mb 60f 58f
3:00pm 3ft 14s 7 9 mph 1013mb 59f 58f
2:00pm 3ft 14s 9
mph
1013.3mb 59f 58f
1:00pm 3ft 6s 9
mph
1013.5mb 59f 58f
12:00pm 3ft 14s 9
mph
1013.5mb 59f 58f
11:00am 3ft 14s 9
mph
1013.5mb 59f 58f
10:00am 3ft 14s 9 11 mph 1013.2mb 58f 57f
9:00am 3ft 14s 9 11 mph 1012.9mb 58f 57f
8:00am 3ft 14s 11 13 mph 1012.5mb 58f 58f
7:00am 3.5ft 14s 13 16 mph 1012.2mb 58f 57f
6:00am 3.5ft 14s 13 16 mph 1011.9mb 58f 57f
5:00am 3.5ft 15s 16 18 mph 1011.8mb 58f 57f
4:00am 3.5ft 15s 13 16 mph 1012mb 59f 58f
3:00am 3.5ft 14s 16 18 mph 1012mb 59f 58f
2:00am 4ft 15s 16 18 mph 1012.1mb 59f 58f
1:00am 3.5ft 14s 13 16 mph 1012.3mb 59f 59f
12:00am 3.5ft 15s 13 16 mph 1012.4mb 59f 59f
Sat 09/13 11:00pm 3.5ft 14s 13 16 mph 1012.4mb 59f 59f
10:00pm 3.5ft 15s 13 16 mph 1012.3mb 59f 58f
9:00pm 3.5ft 7s 13 16 mph 1012.2mb 59f 58f
8:00pm 3.5ft 15s 16 18 mph 1012.3mb 59f 57f
7:00pm 3.5ft 15s 16 18 mph 1012.5mb 59f 58f
6:00pm 3.5ft 14s 13 16 mph 1013.2mb 59f 57f
5:00pm 3.5ft 7s 11 13 mph 1013.5mb 59f 57f
4:00pm 3.5ft 7s 11 13 mph 1014.1mb 59f 57f
3:00pm 3.5ft 7s 13
mph
1014.4mb 59f 56f
2:00pm 4ft 7s 11 13 mph 1014.9mb 59f 56f
1:00pm 3.5ft 7s 13
mph
1015mb 59f 54f
12:00pm 4.5ft 7s 11 13 mph 1015.2mb 59f 56f
11:00am 4.5ft 7s 11 13 mph 1015.3mb 58f 56f
10:00am 4.5ft 7s 13 16 mph 1015.2mb 58f 57f
9:00am 4.5ft 7s 13 16 mph 1015.2mb 58f 57f
8:00am 4.5ft 7s 16 18 mph 1015mb 58f 56f